sensor_id;sensor_type;location;lat;lon;timestamp;P1;durP1;ratioP1;P2;durP2;ratioP2
58222;SDS011;44020;50.890;15.796;2022-10-18T00:00:12;41.40;;;23.50;;
58222;SDS011;44020;50.890;15.796;2022-10-18T00:02:59;37.50;;;22.20;;
58222;SDS011;44020;50.890;15.796;2022-10-18T00:05:26;39.60;;;22.20;;
58222;SDS011;44020;50.890;15.796;2022-10-18T00:07:53;45.30;;;23.20;;
58222;SDS011;44020;50.890;15.796;2022-10-18T00:10:20;40.80;;;23.50;;
58222;SDS011;44020;50.890;15.796;2022-10-18T00:12:50;40.30;;;21.80;;
58222;SDS011;44020;50.890;15.796;2022-10-18T00:15:17;34.20;;;20.70;;
58222;SDS011;44020;50.890;15.796;2022-10-18T00:17:45;32.20;;;19.90;;
58222;SDS011;44020;50.890;15.796;2022-10-18T00:20:12;32.10;;;19.60;;
58222;SDS011;44020;50.890;15.796;2022-10-18T00:22:39;30.30;;;19.10;;
58222;SDS011;44020;50.890;15.796;2022-10-18T00:25:07;30.10;;;18.80;;
58222;SDS011;44020;50.890;15.796;2022-10-18T00:27:35;34.00;;;19.80;;
58222;SDS011;44020;50.890;15.796;2022-10-18T00:30:03;32.40;;;19.80;;
58222;SDS011;44020;50.890;15.796;2022-10-18T00:32:34;33.90;;;19.30;;
58222;SDS011;44020;50.890;15.796;2022-10-18T00:35:04;31.20;;;16.60;;
58222;SDS011;44020;50.890;15.796;2022-10-18T00:37:33;26.50;;;16.90;;
58222;SDS011;44020;50.890;15.796;2022-10-18T00:40:01;28.70;;;18.00;;
58222;SDS011;44020;50.890;15.796;2022-10-18T00:42:29;31.10;;;18.10;;
58222;SDS011;44020;50.890;15.796;2022-10-18T00:44:59;27.50;;;17.60;;
58222;SDS011;44020;50.890;15.796;2022-10-18T00:47:40;28.30;;;16.90;;
58222;SDS011;44020;50.890;15.796;2022-10-18T00:50:09;28.50;;;17.00;;
58222;SDS011;44020;50.890;15.796;2022-10-18T00:52:39;23.70;;;16.00;;
58222;SDS011;44020;50.890;15.796;2022-10-18T00:55:09;24.10;;;15.40;;
58222;SDS011;44020;50.890;15.796;2022-10-18T00:57:37;28.30;;;15.60;;
58222;SDS011;44020;50.890;15.796;2022-10-18T01:00:07;24.20;;;16.00;;
58222;SDS011;44020;50.890;15.796;2022-10-18T01:02:36;24.50;;;15.30;;
58222;SDS011;44020;50.890;15.796;2022-10-18T01:05:04;27.30;;;16.60;;
58222;SDS011;44020;50.890;15.796;2022-10-18T01:16:08;24.00;;;14.60;;
58222;SDS011;44020;50.890;15.796;2022-10-18T01:27:25;23.90;;;14.30;;
58222;SDS011;44020;50.890;15.796;2022-10-18T01:33:11;27.00;;;15.20;;
58222;SDS011;44020;50.890;15.796;2022-10-18T01:35:40;31.20;;;16.20;;
58222;SDS011;44020;50.890;15.796;2022-10-18T01:38:13;27.60;;;16.90;;
58222;SDS011;44020;50.890;15.796;2022-10-18T01:40:44;25.90;;;16.70;;
58222;SDS011;44020;50.890;15.796;2022-10-18T01:43:13;24.60;;;15.40;;
58222;SDS011;44020;50.890;15.796;2022-10-18T01:45:43;26.40;;;15.90;;
58222;SDS011;44020;50.890;15.796;2022-10-18T01:48:10;20.10;;;13.40;;
58222;SDS011;44020;50.890;15.796;2022-10-18T01:50:39;30.30;;;15.60;;
58222;SDS011;44020;50.890;15.796;2022-10-18T01:53:19;29.20;;;16.10;;
58222;SDS011;44020;50.890;15.796;2022-10-18T01:56:03;26.10;;;15.00;;
58222;SDS011;44020;50.890;15.796;2022-10-18T01:58:56;25.30;;;14.60;;
58222;SDS011;44020;50.890;15.796;2022-10-18T02:04:42;26.60;;;16.50;;
58222;SDS011;44020;50.890;15.796;2022-10-18T02:12:43;27.20;;;17.00;;
58222;SDS011;44020;50.890;15.796;2022-10-18T02:15:14;28.90;;;17.20;;
58222;SDS011;44020;50.890;15.796;2022-10-18T02:17:45;28.10;;;18.20;;
58222;SDS011;44020;50.890;15.796;2022-10-18T02:20:13;32.60;;;17.70;;
58222;SDS011;44020;50.890;15.796;2022-10-18T02:22:44;25.40;;;17.30;;
58222;SDS011;44020;50.890;15.796;2022-10-18T02:25:17;27.10;;;16.60;;
58222;SDS011;44020;50.890;15.796;2022-10-18T02:27:48;26.90;;;16.50;;
58222;SDS011;44020;50.890;15.796;2022-10-18T02:30:16;26.40;;;15.70;;
58222;SDS011;44020;50.890;15.796;2022-10-18T02:32:46;26.00;;;15.80;;
58222;SDS011;44020;50.890;15.796;2022-10-18T02:37:52;22.50;;;15.10;;
58222;SDS011;44020;50.890;15.796;2022-10-18T02:40:20;22.90;;;14.90;;
58222;SDS011;44020;50.890;15.796;2022-10-18T02:42:52;23.10;;;14.60;;
58222;SDS011;44020;50.890;15.796;2022-10-18T02:45:21;22.70;;;14.30;;
58222;SDS011;44020;50.890;15.796;2022-10-18T02:47:51;25.90;;;14.70;;
58222;SDS011;44020;50.890;15.796;2022-10-18T02:50:18;23.80;;;15.10;;
58222;SDS011;44020;50.890;15.796;2022-10-18T02:52:45;24.80;;;15.10;;
58222;SDS011;44020;50.890;15.796;2022-10-18T02:55:12;24.00;;;15.20;;
58222;SDS011;44020;50.890;15.796;2022-10-18T02:57:39;24.40;;;15.30;;
58222;SDS011;44020;50.890;15.796;2022-10-18T03:00:07;21.80;;;13.20;;
58222;SDS011;44020;50.890;15.796;2022-10-18T03:02:34;24.20;;;15.00;;
58222;SDS011;44020;50.890;15.796;2022-10-18T03:05:01;23.20;;;14.00;;
58222;SDS011;44020;50.890;15.796;2022-10-18T03:07:28;21.40;;;14.40;;
58222;SDS011;44020;50.890;15.796;2022-10-18T03:09:55;23.30;;;12.50;;
58222;SDS011;44020;50.890;15.796;2022-10-18T03:12:22;17.80;;;11.90;;
58222;SDS011;44020;50.890;15.796;2022-10-18T03:14:49;19.10;;;13.30;;
58222;SDS011;44020;50.890;15.796;2022-10-18T03:17:16;25.90;;;14.90;;
58222;SDS011;44020;50.890;15.796;2022-10-18T03:19:43;20.90;;;15.30;;
58222;SDS011;44020;50.890;15.796;2022-10-18T03:22:10;19.60;;;13.10;;
58222;SDS011;44020;50.890;15.796;2022-10-18T03:24:37;22.10;;;12.90;;
58222;SDS011;44020;50.890;15.796;2022-10-18T03:27:04;23.20;;;13.40;;
58222;SDS011;44020;50.890;15.796;2022-10-18T03:29:31;21.10;;;12.90;;
58222;SDS011;44020;50.890;15.796;2022-10-18T03:31:58;21.40;;;12.50;;
58222;SDS011;44020;50.890;15.796;2022-10-18T03:34:25;19.20;;;12.40;;
58222;SDS011;44020;50.890;15.796;2022-10-18T03:36:52;21.40;;;12.60;;
58222;SDS011;44020;50.890;15.796;2022-10-18T03:39:20;20.50;;;14.90;;
58222;SDS011;44020;50.890;15.796;2022-10-18T03:41:47;24.20;;;16.90;;
58222;SDS011;44020;50.890;15.796;2022-10-18T03:44:14;26.70;;;17.20;;
58222;SDS011;44020;50.890;15.796;2022-10-18T03:46:41;23.10;;;15.70;;
58222;SDS011;44020;50.890;15.796;2022-10-18T03:49:08;20.80;;;13.80;;
58222;SDS011;44020;50.890;15.796;2022-10-18T03:51:34;19.50;;;12.70;;
58222;SDS011;44020;50.890;15.796;2022-10-18T03:54:01;16.90;;;12.20;;
58222;SDS011;44020;50.890;15.796;2022-10-18T03:56:29;21.90;;;12.70;;
58222;SDS011;44020;50.890;15.796;2022-10-18T03:58:55;21.10;;;12.70;;
58222;SDS011;44020;50.890;15.796;2022-10-18T04:01:22;20.30;;;12.70;;
58222;SDS011;44020;50.890;15.796;2022-10-18T04:03:49;22.80;;;12.80;;
58222;SDS011;44020;50.890;15.796;2022-10-18T04:06:16;26.70;;;13.40;;
58222;SDS011;44020;50.890;15.796;2022-10-18T04:08:43;21.40;;;13.40;;
58222;SDS011;44020;50.890;15.796;2022-10-18T04:11:10;23.10;;;12.90;;
58222;SDS011;44020;50.890;15.796;2022-10-18T04:13:38;21.20;;;12.40;;
58222;SDS011;44020;50.890;15.796;2022-10-18T04:16:05;28.30;;;12.80;;
58222;SDS011;44020;50.890;15.796;2022-10-18T04:18:32;19.00;;;11.20;;
58222;SDS011;44020;50.890;15.796;2022-10-18T04:20:59;20.10;;;11.20;;
58222;SDS011;44020;50.890;15.796;2022-10-18T04:23:26;16.20;;;10.80;;
58222;SDS011;44020;50.890;15.796;2022-10-18T04:25:52;19.50;;;11.80;;
58222;SDS011;44020;50.890;15.796;2022-10-18T04:28:19;21.20;;;13.20;;
58222;SDS011;44020;50.890;15.796;2022-10-18T04:30:50;25.30;;;15.30;;
58222;SDS011;44020;50.890;15.796;2022-10-18T04:33:18;21.50;;;13.00;;
58222;SDS011;44020;50.890;15.796;2022-10-18T04:35:46;18.20;;;12.00;;
58222;SDS011;44020;50.890;15.796;2022-10-18T04:38:16;18.70;;;11.50;;
58222;SDS011;44020;50.890;15.796;2022-10-18T04:40:43;18.60;;;11.80;;
58222;SDS011;44020;50.890;15.796;2022-10-18T04:43:10;17.70;;;12.00;;
58222;SDS011;44020;50.890;15.796;2022-10-18T04:45:37;17.70;;;11.70;;
58222;SDS011;44020;50.890;15.796;2022-10-18T04:48:04;22.70;;;12.30;;
58222;SDS011;44020;50.890;15.796;2022-10-18T04:50:31;23.20;;;14.70;;
58222;SDS011;44020;50.890;15.796;2022-10-18T04:52:58;24.30;;;14.30;;
58222;SDS011;44020;50.890;15.796;2022-10-18T04:55:25;22.10;;;14.50;;
58222;SDS011;44020;50.890;15.796;2022-10-18T04:57:52;24.10;;;14.70;;
58222;SDS011;44020;50.890;15.796;2022-10-18T05:00:19;24.90;;;14.80;;
58222;SDS011;44020;50.890;15.796;2022-10-18T05:02:46;27.90;;;15.20;;
58222;SDS011;44020;50.890;15.796;2022-10-18T05:05:13;32.10;;;15.60;;
58222;SDS011;44020;50.890;15.796;2022-10-18T05:07:40;25.20;;;15.10;;
58222;SDS011;44020;50.890;15.796;2022-10-18T05:10:08;26.10;;;14.40;;
58222;SDS011;44020;50.890;15.796;2022-10-18T05:12:35;24.20;;;15.30;;
58222;SDS011;44020;50.890;15.796;2022-10-18T05:15:02;26.50;;;15.20;;
58222;SDS011;44020;50.890;15.796;2022-10-18T05:17:29;24.10;;;14.50;;
58222;SDS011;44020;50.890;15.796;2022-10-18T05:19:57;24.50;;;15.90;;
58222;SDS011;44020;50.890;15.796;2022-10-18T05:22:24;23.20;;;14.50;;
58222;SDS011;44020;50.890;15.796;2022-10-18T05:24:51;23.10;;;14.40;;
58222;SDS011;44020;50.890;15.796;2022-10-18T05:27:18;25.20;;;13.50;;
58222;SDS011;44020;50.890;15.796;2022-10-18T05:29:45;23.10;;;14.30;;
58222;SDS011;44020;50.890;15.796;2022-10-18T05:32:12;24.30;;;14.80;;
58222;SDS011;44020;50.890;15.796;2022-10-18T05:34:40;24.70;;;14.40;;
58222;SDS011;44020;50.890;15.796;2022-10-18T05:37:06;21.20;;;13.70;;
58222;SDS011;44020;50.890;15.796;2022-10-18T05:39:33;21.60;;;13.00;;
58222;SDS011;44020;50.890;15.796;2022-10-18T05:42:00;24.20;;;14.10;;
58222;SDS011;44020;50.890;15.796;2022-10-18T05:44:28;23.40;;;14.50;;
58222;SDS011;44020;50.890;15.796;2022-10-18T05:46:54;23.80;;;13.50;;
58222;SDS011;44020;50.890;15.796;2022-10-18T05:49:21;21.20;;;13.60;;
58222;SDS011;44020;50.890;15.796;2022-10-18T05:51:49;23.70;;;12.60;;
58222;SDS011;44020;50.890;15.796;2022-10-18T05:54:16;21.10;;;12.60;;
58222;SDS011;44020;50.890;15.796;2022-10-18T05:56:43;18.10;;;11.60;;
58222;SDS011;44020;50.890;15.796;2022-10-18T05:59:10;22.50;;;12.10;;
58222;SDS011;44020;50.890;15.796;2022-10-18T06:01:38;22.10;;;12.20;;
58222;SDS011;44020;50.890;15.796;2022-10-18T06:04:05;20.90;;;12.00;;
58222;SDS011;44020;50.890;15.796;2022-10-18T06:06:33;16.60;;;11.30;;
58222;SDS011;44020;50.890;15.796;2022-10-18T06:09:00;19.00;;;12.10;;
58222;SDS011;44020;50.890;15.796;2022-10-18T06:11:29;20.00;;;12.10;;
58222;SDS011;44020;50.890;15.796;2022-10-18T06:13:56;19.10;;;12.40;;
58222;SDS011;44020;50.890;15.796;2022-10-18T06:16:23;19.50;;;11.90;;
58222;SDS011;44020;50.890;15.796;2022-10-18T06:18:53;20.60;;;12.20;;
58222;SDS011;44020;50.890;15.796;2022-10-18T06:21:22;17.50;;;11.30;;
58222;SDS011;44020;50.890;15.796;2022-10-18T06:23:51;17.70;;;12.20;;
58222;SDS011;44020;50.890;15.796;2022-10-18T06:26:19;17.80;;;12.10;;
58222;SDS011;44020;50.890;15.796;2022-10-18T06:28:46;16.80;;;11.30;;
58222;SDS011;44020;50.890;15.796;2022-10-18T06:31:13;17.40;;;11.90;;
58222;SDS011;44020;50.890;15.796;2022-10-18T06:33:41;18.50;;;11.60;;
58222;SDS011;44020;50.890;15.796;2022-10-18T06:38:35;17.10;;;11.70;;
58222;SDS011;44020;50.890;15.796;2022-10-18T06:41:03;19.50;;;13.00;;
58222;SDS011;44020;50.890;15.796;2022-10-18T06:43:30;18.70;;;12.40;;
58222;SDS011;44020;50.890;15.796;2022-10-18T06:45:59;21.40;;;12.80;;
58222;SDS011;44020;50.890;15.796;2022-10-18T06:48:27;21.70;;;12.40;;
58222;SDS011;44020;50.890;15.796;2022-10-18T06:50:55;21.70;;;14.20;;
58222;SDS011;44020;50.890;15.796;2022-10-18T06:53:24;20.20;;;12.90;;
58222;SDS011;44020;50.890;15.796;2022-10-18T06:56:05;21.40;;;13.40;;
58222;SDS011;44020;50.890;15.796;2022-10-18T06:58:35;28.00;;;14.80;;
58222;SDS011;44020;50.890;15.796;2022-10-18T07:01:09;27.40;;;16.20;;
58222;SDS011;44020;50.890;15.796;2022-10-18T07:03:38;25.30;;;16.50;;
58222;SDS011;44020;50.890;15.796;2022-10-18T07:06:06;24.60;;;16.40;;
58222;SDS011;44020;50.890;15.796;2022-10-18T07:08:35;29.40;;;16.60;;
58222;SDS011;44020;50.890;15.796;2022-10-18T07:11:03;30.80;;;16.80;;
58222;SDS011;44020;50.890;15.796;2022-10-18T07:13:32;32.70;;;17.20;;
58222;SDS011;44020;50.890;15.796;2022-10-18T07:16:00;30.30;;;17.00;;
58222;SDS011;44020;50.890;15.796;2022-10-18T07:18:34;27.00;;;16.20;;
58222;SDS011;44020;50.890;15.796;2022-10-18T07:21:03;27.10;;;15.80;;
58222;SDS011;44020;50.890;15.796;2022-10-18T07:23:32;27.00;;;15.30;;
58222;SDS011;44020;50.890;15.796;2022-10-18T07:26:00;29.60;;;15.80;;
58222;SDS011;44020;50.890;15.796;2022-10-18T07:28:27;24.40;;;15.90;;
58222;SDS011;44020;50.890;15.796;2022-10-18T07:30:55;29.60;;;16.40;;
58222;SDS011;44020;50.890;15.796;2022-10-18T07:33:22;22.60;;;15.20;;
58222;SDS011;44020;50.890;15.796;2022-10-18T07:35:51;23.20;;;14.70;;
58222;SDS011;44020;50.890;15.796;2022-10-18T07:38:18;23.70;;;14.00;;
58222;SDS011;44020;50.890;15.796;2022-10-18T07:40:45;23.80;;;14.10;;
58222;SDS011;44020;50.890;15.796;2022-10-18T07:43:12;20.00;;;13.30;;
58222;SDS011;44020;50.890;15.796;2022-10-18T07:45:38;19.70;;;13.30;;
58222;SDS011;44020;50.890;15.796;2022-10-18T07:48:06;20.60;;;12.80;;
58222;SDS011;44020;50.890;15.796;2022-10-18T07:50:32;22.70;;;13.60;;
58222;SDS011;44020;50.890;15.796;2022-10-18T07:52:59;19.80;;;11.90;;
58222;SDS011;44020;50.890;15.796;2022-10-18T07:55:26;19.90;;;12.10;;
58222;SDS011;44020;50.890;15.796;2022-10-18T07:57:53;18.20;;;13.10;;
58222;SDS011;44020;50.890;15.796;2022-10-18T08:00:20;19.90;;;11.40;;
58222;SDS011;44020;50.890;15.796;2022-10-18T08:02:47;19.20;;;11.60;;
58222;SDS011;44020;50.890;15.796;2022-10-18T08:05:13;18.30;;;12.30;;
58222;SDS011;44020;50.890;15.796;2022-10-18T08:07:40;19.50;;;12.00;;
58222;SDS011;44020;50.890;15.796;2022-10-18T08:10:07;18.30;;;11.80;;
58222;SDS011;44020;50.890;15.796;2022-10-18T08:12:34;16.00;;;10.80;;
58222;SDS011;44020;50.890;15.796;2022-10-18T08:15:01;17.60;;;11.90;;
58222;SDS011;44020;50.890;15.796;2022-10-18T08:17:28;16.50;;;11.40;;
58222;SDS011;44020;50.890;15.796;2022-10-18T08:19:55;17.80;;;11.20;;
58222;SDS011;44020;50.890;15.796;2022-10-18T08:22:22;15.60;;;11.10;;
58222;SDS011;44020;50.890;15.796;2022-10-18T08:24:49;15.70;;;11.20;;
58222;SDS011;44020;50.890;15.796;2022-10-18T08:27:16;13.80;;;10.70;;
58222;SDS011;44020;50.890;15.796;2022-10-18T08:29:43;14.50;;;10.30;;
58222;SDS011;44020;50.890;15.796;2022-10-18T08:32:10;14.80;;;10.60;;
58222;SDS011;44020;50.890;15.796;2022-10-18T08:34:38;14.70;;;9.70;;
58222;SDS011;44020;50.890;15.796;2022-10-18T08:37:05;18.20;;;9.60;;
58222;SDS011;44020;50.890;15.796;2022-10-18T08:39:32;14.90;;;10.40;;
58222;SDS011;44020;50.890;15.796;2022-10-18T08:44:31;16.30;;;10.10;;
58222;SDS011;44020;50.890;15.796;2022-10-18T08:47:01;16.00;;;10.50;;
58222;SDS011;44020;50.890;15.796;2022-10-18T08:52:01;15.00;;;10.50;;
58222;SDS011;44020;50.890;15.796;2022-10-18T08:54:38;15.70;;;10.10;;
58222;SDS011;44020;50.890;15.796;2022-10-18T08:57:28;14.40;;;9.40;;
58222;SDS011;44020;50.890;15.796;2022-10-18T08:59:56;17.00;;;10.40;;
58222;SDS011;44020;50.890;15.796;2022-10-18T09:03:28;17.80;;;10.90;;
58222;SDS011;44020;50.890;15.796;2022-10-18T09:08:26;13.20;;;9.80;;
58222;SDS011;44020;50.890;15.796;2022-10-18T09:14:14;16.50;;;10.20;;
58222;SDS011;44020;50.890;15.796;2022-10-18T09:26:39;12.70;;;8.90;;
58222;SDS011;44020;50.890;15.796;2022-10-18T09:34:21;12.20;;;9.40;;
58222;SDS011;44020;50.890;15.796;2022-10-18T09:36:51;22.10;;;9.60;;
58222;SDS011;44020;50.890;15.796;2022-10-18T09:39:20;13.30;;;9.50;;
58222;SDS011;44020;50.890;15.796;2022-10-18T09:42:02;13.70;;;9.10;;
58222;SDS011;44020;50.890;15.796;2022-10-18T09:44:35;14.30;;;8.90;;
58222;SDS011;44020;50.890;15.796;2022-10-18T09:49:40;14.40;;;8.50;;
58222;SDS011;44020;50.890;15.796;2022-10-18T09:52:24;11.50;;;8.90;;
58222;SDS011;44020;50.890;15.796;2022-10-18T09:54:58;13.00;;;7.80;;
58222;SDS011;44020;50.890;15.796;2022-10-18T09:57:36;11.20;;;8.00;;
58222;SDS011;44020;50.890;15.796;2022-10-18T10:00:13;11.70;;;8.70;;
58222;SDS011;44020;50.890;15.796;2022-10-18T10:02:42;13.80;;;9.80;;
58222;SDS011;44020;50.890;15.796;2022-10-18T10:05:12;10.90;;;9.00;;
58222;SDS011;44020;50.890;15.796;2022-10-18T10:07:41;12.10;;;9.40;;
58222;SDS011;44020;50.890;15.796;2022-10-18T10:10:17;14.10;;;10.00;;
58222;SDS011;44020;50.890;15.796;2022-10-18T10:12:47;12.70;;;9.40;;
58222;SDS011;44020;50.890;15.796;2022-10-18T10:15:27;12.40;;;8.40;;
58222;SDS011;44020;50.890;15.796;2022-10-18T10:17:56;13.90;;;8.90;;
58222;SDS011;44020;50.890;15.796;2022-10-18T10:20:34;17.40;;;9.30;;
58222;SDS011;44020;50.890;15.796;2022-10-18T10:23:14;14.60;;;10.50;;
58222;SDS011;44020;50.890;15.796;2022-10-18T10:25:55;12.60;;;9.50;;
58222;SDS011;44020;50.890;15.796;2022-10-18T10:28:26;14.10;;;9.00;;
58222;SDS011;44020;50.890;15.796;2022-10-18T10:31:15;13.30;;;8.60;;
58222;SDS011;44020;50.890;15.796;2022-10-18T10:36:27;13.90;;;8.10;;
58222;SDS011;44020;50.890;15.796;2022-10-18T10:41:51;12.50;;;9.10;;
58222;SDS011;44020;50.890;15.796;2022-10-18T10:44:22;12.50;;;8.60;;
58222;SDS011;44020;50.890;15.796;2022-10-18T10:46:51;12.90;;;8.40;;
58222;SDS011;44020;50.890;15.796;2022-10-18T10:49:22;15.20;;;8.70;;
58222;SDS011;44020;50.890;15.796;2022-10-18T10:51:55;11.10;;;7.70;;
58222;SDS011;44020;50.890;15.796;2022-10-18T10:54:24;12.40;;;8.40;;
58222;SDS011;44020;50.890;15.796;2022-10-18T10:56:56;14.30;;;8.30;;
58222;SDS011;44020;50.890;15.796;2022-10-18T10:59:27;11.70;;;7.70;;
58222;SDS011;44020;50.890;15.796;2022-10-18T11:04:40;15.10;;;7.80;;
58222;SDS011;44020;50.890;15.796;2022-10-18T11:12:38;11.70;;;7.60;;
58222;SDS011;44020;50.890;15.796;2022-10-18T11:23:34;10.70;;;7.00;;
58222;SDS011;44020;50.890;15.796;2022-10-18T11:36:53;12.90;;;8.10;;
58222;SDS011;44020;50.890;15.796;2022-10-18T11:45:10;12.50;;;8.00;;
58222;SDS011;44020;50.890;15.796;2022-10-18T12:03:59;16.30;;;8.60;;
58222;SDS011;44020;50.890;15.796;2022-10-18T12:06:38;14.70;;;8.70;;
58222;SDS011;44020;50.890;15.796;2022-10-18T12:11:51;16.30;;;9.10;;
58222;SDS011;44020;50.890;15.796;2022-10-18T12:14:28;10.80;;;8.10;;
58222;SDS011;44020;50.890;15.796;2022-10-18T12:17:01;11.50;;;8.90;;
58222;SDS011;44020;50.890;15.796;2022-10-18T12:19:33;13.80;;;9.20;;
58222;SDS011;44020;50.890;15.796;2022-10-18T12:22:04;12.10;;;9.00;;
58222;SDS011;44020;50.890;15.796;2022-10-18T12:24:40;13.50;;;8.90;;
58222;SDS011;44020;50.890;15.796;2022-10-18T12:27:08;15.90;;;8.90;;
58222;SDS011;44020;50.890;15.796;2022-10-18T12:29:41;11.00;;;8.80;;
58222;SDS011;44020;50.890;15.796;2022-10-18T12:32:09;12.10;;;8.40;;
58222;SDS011;44020;50.890;15.796;2022-10-18T12:34:53;11.60;;;8.00;;
58222;SDS011;44020;50.890;15.796;2022-10-18T12:37:34;10.40;;;7.70;;
58222;SDS011;44020;50.890;15.796;2022-10-18T12:43:08;13.70;;;8.10;;
58222;SDS011;44020;50.890;15.796;2022-10-18T12:45:47;11.00;;;8.30;;
58222;SDS011;44020;50.890;15.796;2022-10-18T12:48:27;13.90;;;8.30;;
58222;SDS011;44020;50.890;15.796;2022-10-18T12:51:03;11.70;;;6.70;;
58222;SDS011;44020;50.890;15.796;2022-10-18T12:53:30;11.90;;;7.70;;
58222;SDS011;44020;50.890;15.796;2022-10-18T13:10:30;13.80;;;8.70;;
58222;SDS011;44020;50.890;15.796;2022-10-18T13:21:08;15.40;;;7.50;;
58222;SDS011;44020;50.890;15.796;2022-10-18T13:23:41;14.70;;;8.40;;
58222;SDS011;44020;50.890;15.796;2022-10-18T13:26:27;32.50;;;16.30;;
58222;SDS011;44020;50.890;15.796;2022-10-18T13:34:30;32.20;;;20.80;;
58222;SDS011;44020;50.890;15.796;2022-10-18T13:39:37;25.30;;;17.50;;
58222;SDS011;44020;50.890;15.796;2022-10-18T13:44:38;24.10;;;18.20;;
58222;SDS011;44020;50.890;15.796;2022-10-18T13:47:08;27.70;;;18.70;;
58222;SDS011;44020;50.890;15.796;2022-10-18T13:52:23;24.30;;;18.30;;
58222;SDS011;44020;50.890;15.796;2022-10-18T13:58:22;27.70;;;19.60;;
58222;SDS011;44020;50.890;15.796;2022-10-18T14:06:14;18.90;;;14.10;;
58222;SDS011;44020;50.890;15.796;2022-10-18T14:08:47;17.30;;;13.00;;
58222;SDS011;44020;50.890;15.796;2022-10-18T14:22:47;12.90;;;9.50;;
58222;SDS011;44020;50.890;15.796;2022-10-18T14:25:32;11.60;;;8.30;;
58222;SDS011;44020;50.890;15.796;2022-10-18T14:28:14;12.20;;;8.40;;
58222;SDS011;44020;50.890;15.796;2022-10-18T14:30:50;10.20;;;7.20;;
58222;SDS011;44020;50.890;15.796;2022-10-18T14:33:35;8.80;;;6.60;;
58222;SDS011;44020;50.890;15.796;2022-10-18T14:36:21;19.60;;;15.60;;
58222;SDS011;44020;50.890;15.796;2022-10-18T14:39:00;11.40;;;8.40;;
58222;SDS011;44020;50.890;15.796;2022-10-18T14:41:30;41.80;;;36.50;;
58222;SDS011;44020;50.890;15.796;2022-10-18T14:46:46;54.70;;;19.50;;
58222;SDS011;44020;50.890;15.796;2022-10-18T14:49:18;65.40;;;22.80;;
58222;SDS011;44020;50.890;15.796;2022-10-18T14:51:48;32.50;;;21.30;;
58222;SDS011;44020;50.890;15.796;2022-10-18T14:54:52;70.30;;;55.90;;
58222;SDS011;44020;50.890;15.796;2022-10-18T14:59:44;26.20;;;11.20;;
58222;SDS011;44020;50.890;15.796;2022-10-18T15:02:21;32.60;;;13.30;;
58222;SDS011;44020;50.890;15.796;2022-10-18T15:04:57;11.20;;;6.60;;
58222;SDS011;44020;50.890;15.796;2022-10-18T15:07:30;15.30;;;6.80;;
58222;SDS011;44020;50.890;15.796;2022-10-18T15:09:58;22.00;;;11.30;;
58222;SDS011;44020;50.890;15.796;2022-10-18T15:12:28;19.10;;;11.50;;
58222;SDS011;44020;50.890;15.796;2022-10-18T15:14:57;27.90;;;16.60;;
58222;SDS011;44020;50.890;15.796;2022-10-18T15:17:28;14.30;;;10.50;;
58222;SDS011;44020;50.890;15.796;2022-10-18T15:19:59;20.30;;;16.90;;
58222;SDS011;44020;50.890;15.796;2022-10-18T15:22:30;15.70;;;12.10;;
58222;SDS011;44020;50.890;15.796;2022-10-18T15:27:41;20.20;;;11.20;;
58222;SDS011;44020;50.890;15.796;2022-10-18T15:30:24;17.20;;;12.80;;
58222;SDS011;44020;50.890;15.796;2022-10-18T15:33:03;13.60;;;8.90;;
58222;SDS011;44020;50.890;15.796;2022-10-18T15:35:36;11.10;;;8.30;;
58222;SDS011;44020;50.890;15.796;2022-10-18T15:38:14;15.80;;;9.40;;
58222;SDS011;44020;50.890;15.796;2022-10-18T15:40:50;18.10;;;10.60;;
58222;SDS011;44020;50.890;15.796;2022-10-18T15:45:55;10.60;;;8.00;;
58222;SDS011;44020;50.890;15.796;2022-10-18T15:48:25;11.60;;;8.50;;
58222;SDS011;44020;50.890;15.796;2022-10-18T15:50:57;11.70;;;8.10;;
58222;SDS011;44020;50.890;15.796;2022-10-18T15:53:31;15.60;;;12.00;;
58222;SDS011;44020;50.890;15.796;2022-10-18T15:58:46;21.10;;;11.20;;
58222;SDS011;44020;50.890;15.796;2022-10-18T16:01:15;12.80;;;7.50;;
58222;SDS011;44020;50.890;15.796;2022-10-18T16:03:47;9.50;;;5.80;;
58222;SDS011;44020;50.890;15.796;2022-10-18T16:06:17;9.60;;;5.60;;
58222;SDS011;44020;50.890;15.796;2022-10-18T16:08:47;12.90;;;8.30;;
58222;SDS011;44020;50.890;15.796;2022-10-18T16:11:17;11.20;;;8.00;;
58222;SDS011;44020;50.890;15.796;2022-10-18T16:13:45;12.70;;;8.90;;
58222;SDS011;44020;50.890;15.796;2022-10-18T16:16:21;17.10;;;10.30;;
58222;SDS011;44020;50.890;15.796;2022-10-18T16:18:50;19.50;;;11.10;;
58222;SDS011;44020;50.890;15.796;2022-10-18T16:21:23;17.80;;;11.70;;
58222;SDS011;44020;50.890;15.796;2022-10-18T16:23:52;15.60;;;11.50;;
58222;SDS011;44020;50.890;15.796;2022-10-18T16:26:20;13.80;;;9.60;;
58222;SDS011;44020;50.890;15.796;2022-10-18T16:28:48;12.60;;;9.90;;
58222;SDS011;44020;50.890;15.796;2022-10-18T16:31:19;14.20;;;9.20;;
58222;SDS011;44020;50.890;15.796;2022-10-18T16:33:48;14.20;;;10.20;;
58222;SDS011;44020;50.890;15.796;2022-10-18T16:36:17;15.40;;;10.70;;
58222;SDS011;44020;50.890;15.796;2022-10-18T16:38:46;25.60;;;17.30;;
58222;SDS011;44020;50.890;15.796;2022-10-18T16:41:14;19.30;;;14.10;;
58222;SDS011;44020;50.890;15.796;2022-10-18T16:43:42;18.00;;;12.70;;
58222;SDS011;44020;50.890;15.796;2022-10-18T16:46:14;20.10;;;15.00;;
58222;SDS011;44020;50.890;15.796;2022-10-18T16:48:44;25.40;;;17.40;;
58222;SDS011;44020;50.890;15.796;2022-10-18T16:51:12;24.20;;;16.50;;
58222;SDS011;44020;50.890;15.796;2022-10-18T16:53:39;23.40;;;16.40;;
58222;SDS011;44020;50.890;15.796;2022-10-18T16:56:14;22.80;;;15.40;;
58222;SDS011;44020;50.890;15.796;2022-10-18T16:58:43;13.80;;;9.60;;
58222;SDS011;44020;50.890;15.796;2022-10-18T17:01:15;12.80;;;8.40;;
58222;SDS011;44020;50.890;15.796;2022-10-18T17:03:44;14.20;;;9.80;;
58222;SDS011;44020;50.890;15.796;2022-10-18T17:08:43;11.50;;;8.90;;
58222;SDS011;44020;50.890;15.796;2022-10-18T17:11:12;11.20;;;8.50;;
58222;SDS011;44020;50.890;15.796;2022-10-18T17:13:40;13.70;;;10.70;;
58222;SDS011;44020;50.890;15.796;2022-10-18T17:16:10;13.30;;;10.00;;
58222;SDS011;44020;50.890;15.796;2022-10-18T17:18:47;11.60;;;9.70;;
58222;SDS011;44020;50.890;15.796;2022-10-18T17:21:14;12.30;;;9.50;;
58222;SDS011;44020;50.890;15.796;2022-10-18T17:23:41;15.20;;;10.50;;
58222;SDS011;44020;50.890;15.796;2022-10-18T17:26:29;16.40;;;12.00;;
58222;SDS011;44020;50.890;15.796;2022-10-18T17:29:05;16.60;;;12.90;;
58222;SDS011;44020;50.890;15.796;2022-10-18T17:31:33;18.10;;;13.10;;
58222;SDS011;44020;50.890;15.796;2022-10-18T17:34:01;19.00;;;12.90;;
58222;SDS011;44020;50.890;15.796;2022-10-18T17:36:30;17.10;;;12.00;;
58222;SDS011;44020;50.890;15.796;2022-10-18T17:38:58;17.00;;;10.50;;
58222;SDS011;44020;50.890;15.796;2022-10-18T17:41:25;13.30;;;9.40;;
58222;SDS011;44020;50.890;15.796;2022-10-18T17:43:52;10.00;;;7.40;;
58222;SDS011;44020;50.890;15.796;2022-10-18T17:46:19;8.60;;;5.70;;